createdAt,value
2019-03-01T00:00:20.430Z,23.18
2019-03-01T00:02:50.410Z,24.50
2019-03-01T00:05:43.626Z,22.52
2019-03-01T00:08:18.957Z,24.20
2019-03-01T00:11:41.984Z,25.08
2019-03-01T00:14:40.727Z,20.48
2019-03-01T00:17:31.358Z,23.30
2019-03-01T00:20:36.128Z,24.57
2019-03-01T00:23:28.454Z,30.47
2019-03-01T00:26:31.935Z,23.65
2019-03-01T00:29:14.650Z,26.40
2019-03-01T00:32:32.305Z,26.20
2019-03-01T00:35:51.428Z,25.70
2019-03-01T00:39:09.005Z,28.35
2019-03-01T00:42:04.624Z,24.05
2019-03-01T00:44:42.101Z,31.02
2019-03-01T00:47:12.071Z,26.17
2019-03-01T00:49:42.567Z,25.65
2019-03-01T00:52:12.454Z,26.70
2019-03-01T00:54:42.445Z,28.12
2019-03-01T00:57:12.341Z,32.98
2019-03-01T00:59:42.234Z,27.62
2019-03-01T01:02:12.199Z,31.80
2019-03-01T01:04:42.247Z,37.20
2019-03-01T01:07:12.731Z,29.40
2019-03-01T01:09:42.609Z,29.57
2019-03-01T01:12:12.938Z,34.33
2019-03-01T01:14:42.873Z,37.78
2019-03-01T01:17:13.168Z,33.75
2019-03-01T01:19:43.265Z,35.60
2019-03-01T01:22:13.064Z,31.93
2019-03-01T01:24:42.829Z,29.50
2019-03-01T01:27:12.767Z,43.00
2019-03-01T01:29:42.605Z,41.98
2019-03-01T01:32:12.370Z,32.03
2019-03-01T01:34:42.299Z,40.83
2019-03-01T01:37:12.277Z,40.10
2019-03-01T01:39:42.166Z,42.78
2019-03-01T01:42:11.886Z,36.98
2019-03-01T01:44:41.919Z,42.67
2019-03-01T01:47:12.075Z,39.70
2019-03-01T01:49:41.752Z,45.15
2019-03-01T01:52:11.474Z,45.60
2019-03-01T01:54:41.345Z,40.65
2019-03-01T01:57:11.254Z,49.63
2019-03-01T01:59:40.997Z,45.88
2019-03-01T02:02:11.038Z,50.60
2019-03-01T02:04:41.068Z,38.42
2019-03-01T02:07:10.913Z,51.20
2019-03-01T02:09:40.669Z,50.88
2019-03-01T02:12:11.096Z,44.73
2019-03-01T02:14:40.918Z,54.10
2019-03-01T02:17:10.918Z,51.50
2019-03-01T02:19:40.790Z,58.55
2019-03-01T02:22:10.925Z,54.40
2019-03-01T02:24:40.832Z,55.20
2019-03-01T02:27:30.505Z,37.35
2019-03-01T02:30:01.685Z,29.37
2019-03-01T02:32:37.201Z,40.90
2019-03-01T02:35:09.344Z,42.93
2019-03-01T02:37:39.090Z,55.20
2019-03-01T02:40:10.278Z,45.38
2019-03-01T02:42:40.403Z,40.33
2019-03-01T02:45:12.546Z,40.40
2019-03-01T02:47:42.666Z,46.08
2019-03-01T02:50:12.564Z,55.67
2019-03-01T02:52:42.919Z,47.98
2019-03-01T02:55:13.951Z,45.67
2019-03-01T02:57:43.820Z,53.50
2019-03-01T03:00:19.109Z,46.05
2019-03-01T03:02:49.198Z,44.08
2019-03-01T03:05:19.326Z,52.17
2019-03-01T03:08:00.451Z,57.23
2019-03-01T03:10:30.722Z,50.90
2019-03-01T03:13:03.423Z,86.60
2019-03-01T03:15:58.790Z,51.70
2019-03-01T03:18:28.748Z,65.37
2019-03-01T03:20:58.888Z,52.70
2019-03-01T03:23:28.930Z,58.60
2019-03-01T03:25:59.426Z,52.40
2019-03-01T03:28:29.452Z,71.72
2019-03-01T03:30:59.383Z,55.85
2019-03-01T03:33:29.399Z,75.50
2019-03-01T03:35:59.663Z,61.25
2019-03-01T03:38:29.863Z,44.95
2019-03-01T03:40:59.917Z,56.23
2019-03-01T03:43:30.048Z,74.42
2019-03-01T03:45:59.929Z,40.95
2019-03-01T03:48:30.468Z,46.60
2019-03-01T03:51:00.982Z,74.05
2019-03-01T03:53:31.460Z,55.33
2019-03-01T03:56:01.526Z,50.03
2019-03-01T03:58:31.693Z,50.80
2019-03-01T04:01:01.907Z,59.77
2019-03-01T04:03:31.829Z,51.05
2019-03-01T04:06:02.103Z,95.25
2019-03-01T04:08:32.989Z,67.15
2019-03-01T04:11:03.411Z,75.37
2019-03-01T04:13:33.433Z,54.70
2019-03-01T04:16:03.504Z,51.15
2019-03-01T04:18:33.558Z,99.62
2019-03-01T04:21:03.494Z,68.15
2019-03-01T04:23:33.386Z,80.97
2019-03-01T04:26:04.280Z,96.10
2019-03-01T04:28:34.220Z,61.45
2019-03-01T04:31:04.623Z,51.30
2019-03-01T04:33:34.947Z,55.98
2019-03-01T04:36:05.128Z,36.68
2019-03-01T04:38:35.153Z,34.48
2019-03-01T04:41:05.176Z,49.38
2019-03-01T04:43:35.195Z,76.82
2019-03-01T04:46:05.019Z,27.48
2019-03-01T04:48:35.079Z,46.00
2019-03-01T04:51:05.172Z,51.42
2019-03-01T04:53:35.293Z,47.85
2019-03-01T04:56:05.390Z,54.30
2019-03-01T04:58:35.477Z,40.50
2019-03-01T05:01:05.683Z,35.43
2019-03-01T05:03:36.584Z,45.12
2019-03-01T05:06:06.555Z,25.68
2019-03-01T05:08:36.480Z,44.53
2019-03-01T05:11:06.524Z,53.98
2019-03-01T05:13:36.653Z,37.00
2019-03-01T05:16:07.074Z,32.35
2019-03-01T05:18:37.256Z,57.80
2019-03-01T05:21:07.656Z,69.00
2019-03-01T05:23:38.015Z,54.70
2019-03-01T05:26:07.884Z,55.30
2019-03-01T05:28:38.482Z,40.75
2019-03-01T05:31:08.483Z,43.00
2019-03-01T05:33:38.497Z,35.95
2019-03-01T05:36:08.725Z,50.38
2019-03-01T05:38:38.721Z,64.40
2019-03-01T05:41:08.966Z,65.28
2019-03-01T05:43:38.913Z,45.00
2019-03-01T05:46:08.597Z,44.48
2019-03-01T05:48:39.843Z,43.65
2019-03-01T05:51:10.518Z,33.40
2019-03-01T05:53:40.548Z,43.23
2019-03-01T05:56:11.047Z,34.25
2019-03-01T05:58:57.465Z,33.20
2019-03-01T06:01:57.652Z,29.45
2019-03-01T06:04:37.551Z,32.90
2019-03-01T06:07:45.526Z,27.73
2019-03-01T06:10:29.339Z,30.82
2019-03-01T06:13:29.830Z,30.43
2019-03-01T06:16:20.127Z,35.13
2019-03-01T06:19:30.720Z,30.80
2019-03-01T06:22:41.563Z,30.43
2019-03-01T06:25:49.543Z,26.75
2019-03-01T06:28:29.635Z,31.35
2019-03-01T06:31:39.785Z,25.88
2019-03-01T06:34:54.089Z,25.10
2019-03-01T06:37:51.935Z,25.80
2019-03-01T06:41:21.954Z,17.00
2019-03-01T06:44:23.307Z,19.62
2019-03-01T06:47:04.094Z,23.12
2019-03-01T06:50:09.015Z,21.23
2019-03-01T06:52:39.567Z,20.48
2019-03-01T06:55:24.023Z,15.28
2019-03-01T06:57:54.398Z,32.67
2019-03-01T07:00:24.868Z,20.30
2019-03-01T07:02:57.742Z,22.75
2019-03-01T07:05:28.028Z,17.07
2019-03-01T07:07:58.265Z,18.12
2019-03-01T07:10:28.889Z,15.48
2019-03-01T07:12:59.830Z,23.42
2019-03-01T07:15:29.624Z,21.93
2019-03-01T07:18:00.068Z,16.40
2019-03-01T07:20:30.630Z,19.50
2019-03-01T07:23:00.540Z,21.00
2019-03-01T07:25:30.623Z,19.87
2019-03-01T07:28:00.724Z,27.67
2019-03-01T07:30:30.870Z,22.62
2019-03-01T07:33:01.117Z,17.42
2019-03-01T07:35:32.134Z,18.12
2019-03-01T07:38:02.636Z,16.80
2019-03-01T07:40:32.652Z,20.15
2019-03-01T07:43:02.404Z,19.80
2019-03-01T07:45:33.300Z,18.75
2019-03-01T07:48:04.453Z,37.13
2019-03-01T07:50:34.640Z,14.13
2019-03-01T07:53:04.870Z,24.23
2019-03-01T07:55:35.075Z,16.48
2019-03-01T07:58:05.255Z,16.45
2019-03-01T08:00:35.417Z,18.35
2019-03-01T08:03:07.437Z,18.55
2019-03-01T08:05:39.432Z,20.57
2019-03-01T08:08:09.501Z,12.55
2019-03-01T08:10:39.888Z,18.35
2019-03-01T08:13:10.267Z,18.05
2019-03-01T08:15:40.892Z,12.90
2019-03-01T08:18:12.803Z,14.25
2019-03-01T08:20:43.213Z,18.17
2019-03-01T08:23:14.433Z,16.70
2019-03-01T08:25:45.212Z,11.25
2019-03-01T08:28:18.507Z,20.43
2019-03-01T08:30:47.413Z,17.30
2019-03-01T08:33:17.709Z,11.10
2019-03-01T08:35:47.921Z,18.95
2019-03-01T08:38:18.228Z,13.10
2019-03-01T08:40:49.888Z,17.98
2019-03-01T08:43:20.837Z,7.80
2019-03-01T08:45:51.827Z,7.65
2019-03-01T08:48:22.214Z,12.90
2019-03-01T08:50:53.212Z,8.70
2019-03-01T08:53:23.371Z,10.32
2019-03-01T08:55:53.755Z,13.68
2019-03-01T08:58:23.960Z,10.90
2019-03-01T09:00:59.631Z,11.80
2019-03-01T09:03:33.103Z,7.55
2019-03-01T09:06:03.395Z,14.30
2019-03-01T09:08:33.894Z,9.73
2019-03-01T09:11:05.550Z,11.70
2019-03-01T09:13:36.444Z,14.28
2019-03-01T09:16:06.493Z,9.68
2019-03-01T09:18:36.931Z,9.33
2019-03-01T09:21:12.320Z,8.98
2019-03-01T09:23:39.701Z,10.10
2019-03-01T09:26:10.042Z,9.83
2019-03-01T09:28:40.412Z,7.33
2019-03-01T09:31:10.432Z,19.98
2019-03-01T09:33:42.975Z,20.68
2019-03-01T09:36:21.581Z,9.98
2019-03-01T09:38:51.654Z,8.58
2019-03-01T09:41:21.840Z,9.15
2019-03-01T09:43:52.242Z,12.43
2019-03-01T09:46:24.802Z,11.63
2019-03-01T09:48:55.186Z,6.72
2019-03-01T09:51:25.561Z,11.48
2019-03-01T09:53:55.952Z,9.33
2019-03-01T09:56:27.451Z,7.15
2019-03-01T09:58:57.580Z,8.98
2019-03-01T10:01:28.557Z,7.05
2019-03-01T10:03:59.330Z,12.03
2019-03-01T10:06:37.787Z,10.00
2019-03-01T10:09:01.506Z,6.67
2019-03-01T10:11:31.721Z,7.70
2019-03-01T10:14:01.575Z,8.05
2019-03-01T10:16:32.141Z,9.60
2019-03-01T10:19:02.238Z,6.42
2019-03-01T10:21:32.475Z,10.20
2019-03-01T10:24:02.545Z,7.22
2019-03-01T10:26:32.506Z,8.98
2019-03-01T10:29:02.830Z,11.80
2019-03-01T10:31:33.694Z,10.70
2019-03-01T10:34:03.824Z,10.15
2019-03-01T10:36:34.418Z,13.55
2019-03-01T10:39:12.739Z,16.42
2019-03-01T10:41:42.990Z,8.28
2019-03-01T10:44:13.102Z,13.00
2019-03-01T10:46:43.302Z,7.22
2019-03-01T10:49:13.260Z,13.48
2019-03-01T10:51:43.272Z,6.37
2019-03-01T10:54:13.267Z,7.35
2019-03-01T10:56:43.948Z,6.85
2019-03-01T10:59:14.002Z,5.50
2019-03-01T11:01:44.094Z,6.58
2019-03-01T11:04:13.890Z,5.50
2019-03-01T11:06:43.857Z,7.12
2019-03-01T11:09:14.017Z,9.48
2019-03-01T11:11:44.209Z,8.65
2019-03-01T11:14:14.371Z,5.97
2019-03-01T11:16:44.485Z,8.80
2019-03-01T11:19:14.758Z,10.72
2019-03-01T11:21:45.039Z,8.18
2019-03-01T11:24:15.164Z,6.62
2019-03-01T11:26:45.520Z,5.75
2019-03-01T11:29:15.773Z,3.33
2019-03-01T11:31:46.004Z,6.33
2019-03-01T11:34:16.242Z,8.00
2019-03-01T11:36:46.465Z,24.82
2019-03-01T11:39:16.969Z,14.18
2019-03-01T11:41:47.010Z,19.35
2019-03-01T11:44:17.737Z,6.28
2019-03-01T11:46:47.827Z,7.17
2019-03-01T11:49:18.036Z,16.07
2019-03-01T11:51:48.225Z,16.65
2019-03-01T11:54:18.449Z,13.68
2019-03-01T11:56:48.799Z,7.55
2019-03-01T11:59:18.923Z,10.85
2019-03-01T12:01:49.204Z,13.85
2019-03-01T12:04:19.434Z,11.65
2019-03-01T12:06:49.454Z,12.40
2019-03-01T12:09:22.574Z,19.82
2019-03-01T12:11:59.421Z,12.78
2019-03-01T12:14:30.288Z,9.68
2019-03-01T12:17:00.536Z,14.07
2019-03-01T12:19:30.650Z,16.40
2019-03-01T12:22:16.766Z,8.00
2019-03-01T12:24:36.279Z,9.65
2019-03-01T12:27:08.914Z,8.35
2019-03-01T12:29:41.850Z,9.45
2019-03-01T12:32:12.445Z,6.83
2019-03-01T12:34:42.747Z,5.92
2019-03-01T12:37:12.763Z,15.38
2019-03-01T12:39:42.823Z,8.80
2019-03-01T12:42:13.120Z,9.95
2019-03-01T12:44:43.835Z,11.45
2019-03-01T12:47:13.733Z,11.80
2019-03-01T12:49:44.034Z,8.43
2019-03-01T12:52:14.055Z,9.18
2019-03-01T12:54:44.561Z,7.50
2019-03-01T12:57:15.871Z,8.78
2019-03-01T12:59:45.990Z,15.70
2019-03-01T13:02:15.904Z,6.45
2019-03-01T13:04:49.852Z,13.20
2019-03-01T13:07:19.878Z,8.55
2019-03-01T13:09:50.575Z,14.98
2019-03-01T13:12:22.362Z,14.30
2019-03-01T13:14:52.893Z,10.75
2019-03-01T13:17:23.448Z,9.40
2019-03-01T13:19:53.938Z,10.95
2019-03-01T13:22:24.823Z,6.70
2019-03-01T13:24:57.104Z,11.30
2019-03-01T13:27:27.357Z,7.47
2019-03-01T13:29:58.764Z,6.45
2019-03-01T13:32:30.335Z,11.93
2019-03-01T13:35:00.665Z,10.32
2019-03-01T13:37:31.357Z,9.70
2019-03-01T13:40:01.456Z,6.72
2019-03-01T13:42:31.721Z,11.22
2019-03-01T13:45:01.704Z,7.50
2019-03-01T13:47:32.029Z,9.13
2019-03-01T13:50:06.805Z,11.57
2019-03-01T13:52:57.233Z,10.35
2019-03-01T13:56:10.676Z,13.38
2019-03-01T13:59:06.949Z,6.15
2019-03-01T14:01:52.469Z,9.30
2019-03-01T14:04:24.524Z,11.43
2019-03-01T14:07:16.521Z,11.30
2019-03-01T14:09:47.309Z,6.22
2019-03-01T14:12:20.797Z,6.35
2019-03-01T14:14:51.192Z,9.25
2019-03-01T14:17:26.500Z,6.45
2019-03-01T14:19:57.753Z,15.68
2019-03-01T14:22:28.448Z,19.35
2019-03-01T14:25:02.467Z,5.83
2019-03-01T14:27:32.364Z,15.75
2019-03-01T14:30:03.019Z,10.45
2019-03-01T14:32:33.352Z,11.90
2019-03-01T14:35:05.268Z,4.42
2019-03-01T14:37:38.114Z,10.20
2019-03-01T14:40:10.369Z,11.35
2019-03-01T14:42:47.457Z,3.83
2019-03-01T14:45:21.034Z,7.15
2019-03-01T14:47:52.388Z,14.07
2019-03-01T14:50:24.051Z,10.10
2019-03-01T14:52:58.424Z,4.62
2019-03-01T14:55:36.087Z,13.88
2019-03-01T14:58:13.380Z,9.90
2019-03-01T15:00:59.327Z,9.83
2019-03-01T15:03:34.462Z,24.55
2019-03-01T15:06:09.343Z,12.20
2019-03-01T15:08:45.181Z,7.60
2019-03-01T15:11:19.125Z,7.75
2019-03-01T15:13:51.309Z,8.95
2019-03-01T15:16:23.664Z,23.12
2019-03-01T15:18:55.667Z,15.98
2019-03-01T15:21:30.445Z,10.18
2019-03-01T15:24:01.520Z,7.17
2019-03-01T15:26:35.679Z,8.85
2019-03-01T15:29:07.278Z,4.53
2019-03-01T15:31:40.106Z,7.53
2019-03-01T15:34:12.041Z,11.15
2019-03-01T15:36:59.455Z,6.12
2019-03-01T15:39:30.718Z,7.22
2019-03-01T15:42:03.065Z,14.40
2019-03-01T15:44:36.631Z,5.83
2019-03-01T15:47:07.830Z,6.30
2019-03-01T15:49:38.621Z,4.97
2019-03-01T15:52:13.675Z,9.60
2019-03-01T15:54:45.294Z,5.90
2019-03-01T15:57:21.757Z,6.20
2019-03-01T15:59:50.874Z,15.48
2019-03-01T16:02:25.536Z,4.87
2019-03-01T16:04:57.111Z,10.25
2019-03-01T16:10:21.965Z,9.55
2019-03-01T16:12:53.568Z,7.12
2019-03-01T16:15:24.417Z,4.83
2019-03-01T16:18:01.116Z,5.33
2019-03-01T16:20:33.706Z,5.30
2019-03-01T16:23:27.449Z,7.37
2019-03-01T16:25:59.374Z,13.25
2019-03-01T16:28:31.146Z,10.70
2019-03-01T16:31:02.915Z,2.80
2019-03-01T16:33:36.616Z,11.88
2019-03-01T16:36:15.141Z,12.78
2019-03-01T16:38:48.734Z,8.90
2019-03-01T16:41:18.184Z,5.37
2019-03-01T16:43:48.699Z,10.63
2019-03-01T16:46:19.259Z,18.77
2019-03-01T16:48:52.279Z,9.90
2019-03-01T16:51:24.095Z,4.50
2019-03-01T16:53:57.280Z,10.35
2019-03-01T16:56:28.764Z,10.88
2019-03-01T16:59:10.454Z,5.50
2019-03-01T17:01:41.414Z,5.78
2019-03-01T17:04:13.023Z,6.55
2019-03-01T17:06:49.293Z,3.45
2019-03-01T17:09:19.071Z,6.15
2019-03-01T17:11:49.342Z,4.85
2019-03-01T17:14:19.762Z,7.08
2019-03-01T17:16:59.604Z,5.45
2019-03-01T17:19:28.921Z,6.60
2019-03-01T17:21:59.600Z,4.33
2019-03-01T17:24:30.235Z,6.12
2019-03-01T17:27:02.068Z,5.67
2019-03-01T17:29:35.745Z,2.15
2019-03-01T17:32:05.809Z,4.62
2019-03-01T17:34:36.463Z,7.28
2019-03-01T17:37:07.779Z,4.03
2019-03-01T17:39:38.191Z,2.80
2019-03-01T17:42:08.280Z,1.02
2019-03-01T17:44:41.421Z,5.22
2019-03-01T17:47:10.931Z,2.87
2019-03-01T17:49:41.097Z,5.65
2019-03-01T17:52:11.466Z,4.67
2019-03-01T17:54:41.892Z,9.78
2019-03-01T17:57:11.800Z,3.25
2019-03-01T17:59:44.610Z,6.22
2019-03-01T18:02:15.739Z,8.73
2019-03-01T18:04:46.086Z,5.83
2019-03-01T18:07:16.367Z,4.30
2019-03-01T18:09:47.293Z,1.95
2019-03-01T18:12:20.590Z,3.67
2019-03-01T18:14:50.886Z,3.08
2019-03-01T18:17:21.615Z,5.72
2019-03-01T18:19:52.611Z,4.60
2019-03-01T18:22:26.355Z,2.65
2019-03-01T18:24:55.666Z,4.12
2019-03-01T18:27:26.157Z,4.75
2019-03-01T18:29:57.338Z,4.87
2019-03-01T18:32:27.443Z,5.08
2019-03-01T18:34:58.293Z,7.42
2019-03-01T18:37:28.548Z,4.33
2019-03-01T18:39:58.760Z,3.22
2019-03-01T18:42:28.949Z,4.50
2019-03-01T18:44:59.241Z,4.37
2019-03-01T18:47:30.701Z,3.95
2019-03-01T18:50:01.845Z,5.87
2019-03-01T18:52:32.240Z,2.33
2019-03-01T18:55:03.063Z,3.77
2019-03-01T18:57:35.461Z,4.85
2019-03-01T19:00:14.212Z,3.80
2019-03-01T19:02:45.081Z,4.47
2019-03-01T19:05:15.586Z,3.30
2019-03-01T19:07:46.256Z,3.50
2019-03-01T19:10:16.546Z,2.85
2019-03-01T19:12:48.608Z,4.42
2019-03-01T19:15:18.763Z,2.85
2019-03-01T19:17:49.178Z,3.08
2019-03-01T19:20:21.519Z,3.52
2019-03-01T19:22:51.571Z,5.78
2019-03-01T19:25:25.261Z,4.40
2019-03-01T19:27:54.818Z,9.95
2019-03-01T19:30:25.247Z,3.80
2019-03-01T19:32:55.136Z,6.62
2019-03-01T19:35:29.783Z,3.22
2019-03-01T19:37:57.770Z,2.30
2019-03-01T19:40:28.555Z,2.75
2019-03-01T19:42:58.968Z,3.02
2019-03-01T19:45:29.287Z,4.00
2019-03-01T19:48:03.222Z,2.92
2019-03-01T19:50:31.831Z,3.65
2019-03-01T19:53:02.429Z,12.07
2019-03-01T19:55:32.794Z,3.90
2019-03-01T19:58:03.608Z,1.57
2019-03-01T20:00:34.021Z,4.80
2019-03-01T20:03:06.571Z,3.20
2019-03-01T20:05:36.471Z,3.67
2019-03-01T20:08:06.838Z,4.70
2019-03-01T20:10:37.045Z,3.92
2019-03-01T20:13:08.105Z,3.22
2019-03-01T20:15:38.370Z,3.80
2019-03-01T20:18:09.922Z,4.53
2019-03-01T20:20:40.727Z,6.58
2019-03-01T20:23:11.046Z,4.28
2019-03-01T20:25:41.391Z,4.15
2019-03-01T20:28:15.211Z,5.60
2019-03-01T20:30:44.907Z,5.67
2019-03-01T20:33:15.414Z,3.60
2019-03-01T20:35:45.422Z,3.77
2019-03-01T20:38:15.346Z,7.25
2019-03-01T20:40:45.759Z,10.85
2019-03-01T20:43:15.822Z,5.45
2019-03-01T20:45:46.509Z,2.30
2019-03-01T20:48:16.798Z,5.53
2019-03-01T20:50:47.595Z,3.62
2019-03-01T20:53:20.736Z,2.52
2019-03-01T20:55:51.090Z,1.87
2019-03-01T20:58:22.197Z,5.08
2019-03-01T21:00:52.548Z,2.80
2019-03-01T21:03:24.960Z,1.72
2019-03-01T21:05:55.875Z,3.70
2019-03-01T21:08:28.974Z,4.40
2019-03-01T21:10:58.532Z,2.47
2019-03-01T21:13:28.465Z,4.03
2019-03-01T21:15:58.756Z,7.83
2019-03-01T21:18:30.815Z,3.12
2019-03-01T21:21:00.844Z,3.27
2019-03-01T21:23:30.883Z,1.92
2019-03-01T21:26:00.717Z,4.42
2019-03-01T21:28:33.736Z,12.95
2019-03-01T21:31:02.704Z,4.97
2019-03-01T21:33:32.918Z,2.67
2019-03-01T21:36:03.603Z,2.77
2019-03-01T21:38:33.627Z,3.80
2019-03-01T21:41:06.279Z,6.45
2019-03-01T21:43:36.868Z,2.58
2019-03-01T21:46:08.593Z,2.08
2019-03-01T21:48:38.854Z,6.12
2019-03-01T21:51:09.511Z,6.75
2019-03-01T21:53:39.923Z,10.45
2019-03-01T21:56:11.163Z,3.50
2019-03-01T21:58:41.991Z,8.60
2019-03-01T22:01:13.252Z,5.12
2019-03-01T22:03:43.090Z,5.78
2019-03-01T22:06:13.127Z,7.50
2019-03-01T22:08:44.830Z,8.45
2019-03-01T22:11:15.305Z,6.92
2019-03-01T22:13:45.289Z,7.67
2019-03-01T22:16:15.403Z,7.70
2019-03-01T22:18:45.682Z,6.35
2019-03-01T22:21:16.551Z,7.22
2019-03-01T22:23:51.440Z,6.92
2019-03-01T22:26:20.378Z,6.40
2019-03-01T22:35:50.298Z,6.80
2019-03-01T22:38:20.742Z,13.83
2019-03-01T22:40:50.856Z,2.05
2019-03-01T22:43:22.505Z,2.12
2019-03-01T22:45:52.815Z,7.08
2019-03-01T22:48:23.131Z,2.95
2019-03-01T22:50:53.249Z,2.70
2019-03-01T22:53:23.507Z,8.50
2019-03-01T22:55:53.445Z,2.70
2019-03-01T22:58:24.208Z,3.95
2019-03-01T23:01:13.322Z,2.25
2019-03-01T23:03:51.530Z,4.15
2019-03-01T23:06:20.633Z,1.30
2019-03-01T23:08:50.578Z,2.40
2019-03-01T23:11:20.438Z,2.27
2019-03-01T23:13:52.696Z,4.85
2019-03-01T23:16:22.381Z,3.08
2019-03-01T23:18:56.692Z,5.87
2019-03-01T23:21:24.818Z,2.90
2019-03-01T23:23:55.765Z,3.72
2019-03-01T23:26:26.996Z,0.85
2019-03-01T23:28:57.194Z,4.08
2019-03-01T23:31:27.323Z,2.72
2019-03-01T23:33:57.277Z,5.70
2019-03-01T23:36:28.535Z,2.58
2019-03-01T23:38:59.280Z,1.55
2019-03-01T23:41:29.378Z,1.30
2019-03-01T23:43:59.202Z,4.37
2019-03-01T23:46:29.538Z,2.83
2019-03-01T23:49:05.993Z,7.05
2019-03-01T23:51:31.387Z,8.13
2019-03-01T23:54:01.515Z,4.75
2019-03-01T23:56:31.547Z,3.70
2019-03-01T23:59:01.703Z,1.15
